Time;durP1;ratioP1;P1;durP2;ratioP2;P2;SDS_P1;SDS_P2;PMS_P1;PMS_P2;Temp;Humidity;BMP_temperature;BMP_pressure;BME280_temperature;BME280_humidity;BME280_pressure;Samples;Min_cycle;Max_cycle;Signal;HPM_P1;HPM_P2
2024/01/13 00:00:51;;;;;;;;;;;;;;;;;;5133635;28;19968;-41
2024/01/13 00:03:17;;;;;;;;;;;;;;;;;;5133720;28;19923;-42
2024/01/13 00:05:42;;;;;;;;;;;;;;;;;;5133453;28;20014;-45
2024/01/13 00:08:08;;;;;;;;;;;;;;;;;;5133325;28;20387;-43
2024/01/13 00:10:35;;;;;;;;;;;;;;;;;;5133261;28;19923;-43
2024/01/13 00:13:00;;;;;;;;;;;;;;;;;;5133312;28;19971;-45
2024/01/13 00:15:25;;;;;;;;;;;;;;;;;;5133080;28;19931;-44
2024/01/13 00:17:51;;;;;;;;;;;;;;;;;;5133341;28;19982;-43
2024/01/13 00:20:17;;;;;;;;;;;;;;;;;;5133232;28;19970;-45
2024/01/13 00:22:47;;;;;;;;;;;;;;;;;;5133326;28;19923;-45
2024/01/13 00:25:13;;;;;;;;;;;;;;;;;;5133232;28;19928;-42
2024/01/13 00:27:38;;;;;;;;;;;;;;;;;;5133196;28;20000;-43
2024/01/13 00:30:03;;;;;;;;;;;;;;;;;;5133362;28;19941;-42
2024/01/13 00:32:29;;;;;;;;;;;;;;;;;;5133218;28;20016;-42
2024/01/13 00:34:54;;;;;;;;;;;;;;;;;;5132989;28;20370;-42
2024/01/13 00:37:20;;;;;;;;;;;;;;;;;;5133253;28;19969;-44
2024/01/13 00:39:45;;;;;;;;;;;;;;;;;;5132617;28;20014;-45
2024/01/13 00:42:11;;;;;;;;;;;;;;;;;;5132915;28;20071;-44
2024/01/13 00:44:36;;;;;;;;;;;;;;;;;;5132922;28;19967;-45
2024/01/13 00:47:02;;;;;;;;;;;;;;;;;;5132529;28;19978;-43
2024/01/13 00:49:27;;;;;;;;;;;;;;;;;;5132877;28;20010;-43
2024/01/13 00:51:53;;;;;;;;;;;;;;;;;;5133018;28;19973;-42
2024/01/13 00:54:18;;;;;;;;;;;;;;;;;;5132884;28;19959;-42
2024/01/13 00:56:44;;;;;;;;;;;;;;;;;;5132868;28;20010;-42
2024/01/13 00:59:09;;;;;;;;;;;;;;;;;;5132846;28;20002;-40
2024/01/13 01:01:35;;;;;;;;;;;;;;;;;;5117003;28;20279;-44
2024/01/13 01:04:00;;;;;;;;;;;;;;;;;;5132852;28;19931;-42
2024/01/13 01:06:26;;;;;;;;;;;;;;;;;;5132847;27;19928;-42
2024/01/13 01:08:51;;;;;;;;;;;;;;;;;;5136158;28;20419;-43
2024/01/13 01:11:17;;;;;;;;;;;;;;;;;;5135862;28;20010;-42
2024/01/13 01:13:43;;;;;;;;;;;;;;;;;;5136124;28;19947;-41
2024/01/13 01:16:09;;;;;;;;;;;;;;;;;;5135797;28;19923;-42
2024/01/13 01:18:34;;;;;;;;;;;;;;;;;;5136126;28;19930;-42
2024/01/13 01:21:07;;;;;;;;;;;;;;;;;;5136165;28;19946;-45
2024/01/13 01:23:33;;;;;;;;;;;;;;;;;;5136051;28;20370;-42
2024/01/13 01:25:58;;;;;;;;;;;;;;;;;;5135987;28;20002;-41
2024/01/13 01:28:24;;;;;;;;;;;;;;;;;;5136004;28;19982;-42
2024/01/13 01:30:58;;;;;;;;;;;;;;;;;;5136041;28;19968;-44
2024/01/13 01:33:24;;;;;;;;;;;;;;;;;;5135955;28;19931;-41
2024/01/13 01:35:49;;;;;;;;;;;;;;;;;;5135847;27;19934;-43
2024/01/13 01:38:15;;;;;;;;;;;;;;;;;;5135701;28;19955;-42
2024/01/13 01:40:51;;;;;;;;;;;;;;;;;;5135467;28;19988;-43
2024/01/13 01:43:16;;;;;;;;;;;;;;;;;;5135662;28;19931;-42
2024/01/13 01:45:42;;;;;;;;;;;;;;;;;;5135272;28;19955;-42
2024/01/13 01:48:07;;;;;;;;;;;;;;;;;;5135591;28;19973;-43
2024/01/13 01:50:35;;;;;;;;;;;;;;;;;;5135446;28;19924;-43
2024/01/13 01:53:00;;;;;;;;;;;;;;;;;;5135614;28;20375;-42
2024/01/13 01:55:26;;;;;;;;;;;;;;;;;;5135592;28;19999;-42
2024/01/13 01:57:52;;;;;;;;;;;;;;;;;;5135508;28;20006;-43
2024/01/13 02:00:18;;;;;;;;;;;;;;;;;;5135606;28;19978;-42
2024/01/13 02:02:44;;;;;;;;;;;;;;;;;;5135471;28;19931;-43
2024/01/13 02:05:09;;;;;;;;;;;;;;;;;;5135448;28;20427;-44
2024/01/13 02:07:35;;;;;;;;;;;;;;;;;;5134951;28;20044;-43
2024/01/13 02:10:00;;;;;;;;;;;;;;;;;;5134962;28;20454;-42
2024/01/13 02:12:26;;;;;;;;;;;;;;;;;;5135186;28;19982;-45
2024/01/13 02:14:51;;;;;;;;;;;;;;;;;;5135155;28;19929;-42
2024/01/13 02:17:17;;;;;;;;;;;;;;;;;;5134900;28;20019;-45
2024/01/13 02:19:42;;;;;;;;;;;;;;;;;;5134332;27;19980;-43
2024/01/13 02:22:08;;;;;;;;;;;;;;;;;;5135211;28;20389;-43
2024/01/13 02:24:33;;;;;;;;;;;;;;;;;;5135144;28;19935;-44
2024/01/13 02:26:58;;;;;;;;;;;;;;;;;;5135138;28;19931;-42
2024/01/13 02:29:24;;;;;;;;;;;;;;;;;;5135232;28;19969;-43
2024/01/13 02:31:49;;;;;;;;;;;;;;;;;;5135026;28;20030;-41
2024/01/13 02:34:15;;;;;;;;;;;;;;;;;;5134994;28;19935;-43
2024/01/13 02:36:41;;;;;;;;;;;;;;;;;;5134751;27;19923;-44
2024/01/13 02:39:06;;;;;;;;;;;;;;;;;;5134462;28;19975;-41
2024/01/13 02:41:32;;;;;;;;;;;;;;;;;;5134424;28;20390;-43
2024/01/13 02:43:57;;;;;;;;;;;;;;;;;;5134742;28;20018;-41
2024/01/13 02:46:23;;;;;;;;;;;;;;;;;;5134348;28;19958;-43
2024/01/13 02:48:48;;;;;;;;;;;;;;;;;;5134412;28;19923;-44
2024/01/13 02:51:14;;;;;;;;;;;;;;;;;;5134611;28;20434;-42
2024/01/13 02:53:40;;;;;;;;;;;;;;;;;;5134628;28;19930;-43
2024/01/13 02:56:05;;;;;;;;;;;;;;;;;;5134740;28;20378;-43
2024/01/13 02:58:31;;;;;;;;;;;;;;;;;;5134532;28;19962;-42
2024/01/13 03:01:07;;;;;;;;;;;;;;;;;;5134636;28;20468;-43
2024/01/13 03:03:32;;;;;;;;;;;;;;;;;;5134523;28;20275;-42
2024/01/13 03:05:58;;;;;;;;;;;;;;;;;;5133981;28;19966;-42
2024/01/13 03:08:24;;;;;;;;;;;;;;;;;;5134015;28;20434;-43
2024/01/13 03:10:55;;;;;;;;;;;;;;;;;;5134184;28;20033;-42
2024/01/13 03:13:21;;;;;;;;;;;;;;;;;;5134276;28;19923;-44
2024/01/13 03:15:46;;;;;;;;;;;;;;;;;;5133698;28;20282;-42
2024/01/13 03:18:12;;;;;;;;;;;;;;;;;;5134181;28;20360;-40
2024/01/13 03:20:43;;;;;;;;;;;;;;;;;;5134201;28;19923;-43
2024/01/13 03:23:09;;;;;;;;;;;;;;;;;;5134187;28;19923;-46
2024/01/13 03:25:34;;;;;;;;;;;;;;;;;;5134202;28;20381;-44
2024/01/13 03:28:00;;;;;;;;;;;;;;;;;;5134172;28;19927;-41
2024/01/13 03:30:25;;;;;;;;;;;;;;;;;;5133054;27;20011;-43
2024/01/13 03:32:51;;;;;;;;;;;;;;;;;;5133506;28;19978;-41
2024/01/13 03:35:17;;;;;;;;;;;;;;;;;;5133937;27;19946;-42
2024/01/13 03:37:42;;;;;;;;;;;;;;;;;;5133870;28;19946;-44
2024/01/13 03:40:08;;;;;;;;;;;;;;;;;;5133584;28;19963;-42
2024/01/13 03:42:33;;;;;;;;;;;;;;;;;;5133811;28;19971;-42
2024/01/13 03:44:59;;;;;;;;;;;;;;;;;;5133428;28;19930;-40
2024/01/13 03:47:24;;;;;;;;;;;;;;;;;;5133393;28;19973;-42
2024/01/13 03:49:49;;;;;;;;;;;;;;;;;;5133795;28;20038;-42
2024/01/13 03:52:15;;;;;;;;;;;;;;;;;;5133816;28;19965;-44
2024/01/13 03:54:41;;;;;;;;;;;;;;;;;;5133758;28;19930;-43
2024/01/13 03:57:06;;;;;;;;;;;;;;;;;;5133744;28;19923;-43
2024/01/13 03:59:32;;;;;;;;;;;;;;;;;;5133782;28;19969;-44
2024/01/13 04:01:57;;;;;;;;;;;;;;;;;;5133741;28;19931;-42
2024/01/13 04:04:23;;;;;;;;;;;;;;;;;;5133636;28;20024;-41
2024/01/13 04:06:49;;;;;;;;;;;;;;;;;;5133202;28;20417;-44
2024/01/13 04:09:14;;;;;;;;;;;;;;;;;;5133341;28;19979;-40
2024/01/13 04:11:40;;;;;;;;;;;;;;;;;;5133235;28;19967;-43
2024/01/13 04:14:05;;;;;;;;;;;;;;;;;;5133285;28;19937;-41
2024/01/13 04:16:31;;;;;;;;;;;;;;;;;;5133176;28;19923;-42
2024/01/13 04:18:56;;;;;;;;;;;;;;;;;;5133341;28;19963;-41
2024/01/13 04:21:22;;;;;;;;;;;;;;;;;;5133202;28;19924;-42
2024/01/13 04:23:48;;;;;;;;;;;;;;;;;;5133339;28;20359;-42
2024/01/13 04:26:14;;;;;;;;;;;;;;;;;;5133233;28;19935;-43
2024/01/13 04:28:39;;;;;;;;;;;;;;;;;;5133232;28;20418;-41
2024/01/13 04:31:07;;;;;;;;;;;;;;;;;;5133383;28;20371;-42
2024/01/13 04:33:32;;;;;;;;;;;;;;;;;;5132855;28;19924;-42
2024/01/13 04:35:58;;;;;;;;;;;;;;;;;;5133176;27;19931;-41
2024/01/13 04:38:25;;;;;;;;;;;;;;;;;;5132679;28;20279;-41
2024/01/13 04:40:51;;;;;;;;;;;;;;;;;;5132599;28;19923;-42
2024/01/13 04:43:16;;;;;;;;;;;;;;;;;;5135700;27;20378;-41
2024/01/13 04:45:42;;;;;;;;;;;;;;;;;;5136383;28;19927;-42
2024/01/13 04:48:07;;;;;;;;;;;;;;;;;;5136598;28;19927;-43
2024/01/13 04:50:33;;;;;;;;;;;;;;;;;;5136609;28;20294;-42
2024/01/13 04:52:59;;;;;;;;;;;;;;;;;;5136598;28;19927;-41
2024/01/13 04:55:24;;;;;;;;;;;;;;;;;;5136602;28;19942;-43
2024/01/13 04:57:50;;;;;;;;;;;;;;;;;;5136043;28;20014;-44
2024/01/13 05:00:15;;;;;;;;;;;;;;;;;;5136637;28;19967;-41
2024/01/13 05:02:40;;;;;;;;;;;;;;;;;;5136621;28;20018;-43
2024/01/13 05:05:11;;;;;;;;;;;;;;;;;;5136444;28;19924;-43
2024/01/13 05:07:38;;;;;;;;;;;;;;;;;;5136170;28;19935;-42
2024/01/13 05:10:03;;;;;;;;;;;;;;;;;;5136041;28;19931;-43
2024/01/13 05:12:29;;;;;;;;;;;;;;;;;;5136234;28;19923;-44
2024/01/13 05:14:54;;;;;;;;;;;;;;;;;;5135971;28;19982;-43
2024/01/13 05:17:20;;;;;;;;;;;;;;;;;;5135942;28;19962;-43
2024/01/13 05:19:45;;;;;;;;;;;;;;;;;;5136063;28;20006;-44
2024/01/13 05:22:11;;;;;;;;;;;;;;;;;;5135811;28;20014;-42
2024/01/13 05:24:36;;;;;;;;;;;;;;;;;;5136163;28;19973;-42
2024/01/13 05:27:02;;;;;;;;;;;;;;;;;;5135920;28;19962;-40
2024/01/13 05:29:28;;;;;;;;;;;;;;;;;;5136088;28;20355;-41
2024/01/13 05:31:53;;;;;;;;;;;;;;;;;;5136057;28;19923;-42
2024/01/13 05:34:19;;;;;;;;;;;;;;;;;;5135994;28;19924;-42
2024/01/13 05:36:44;;;;;;;;;;;;;;;;;;5135616;27;19966;-41
2024/01/13 05:39:10;;;;;;;;;;;;;;;;;;5135773;28;20350;-43
2024/01/13 05:41:35;;;;;;;;;;;;;;;;;;5135488;28;19935;-41
2024/01/13 05:44:01;;;;;;;;;;;;;;;;;;5135704;28;19923;-41
2024/01/13 05:46:26;;;;;;;;;;;;;;;;;;5135364;28;19924;-41
2024/01/13 05:48:52;;;;;;;;;;;;;;;;;;5135568;28;19927;-42
2024/01/13 05:51:17;;;;;;;;;;;;;;;;;;5135597;28;19923;-43
2024/01/13 05:53:44;;;;;;;;;;;;;;;;;;5134694;27;19962;-43
2024/01/13 05:56:09;;;;;;;;;;;;;;;;;;5135621;28;20378;-43
2024/01/13 05:58:35;;;;;;;;;;;;;;;;;;5135171;28;19963;-43
2024/01/13 06:01:00;;;;;;;;;;;;;;;;;;5135750;28;20386;-41
2024/01/13 06:03:26;;;;;;;;;;;;;;;;;;5135546;28;20014;-43
2024/01/13 06:05:52;;;;;;;;;;;;;;;;;;5135520;28;19975;-42
2024/01/13 06:08:17;;;;;;;;;;;;;;;;;;5135164;28;19931;-41
2024/01/13 06:10:43;;;;;;;;;;;;;;;;;;5134712;28;19971;-44
2024/01/13 06:13:08;;;;;;;;;;;;;;;;;;5134999;28;20435;-43
2024/01/13 06:15:33;;;;;;;;;;;;;;;;;;5134880;28;20379;-41
2024/01/13 06:17:59;;;;;;;;;;;;;;;;;;5135084;28;19923;-43
2024/01/13 06:20:25;;;;;;;;;;;;;;;;;;5135174;28;19963;-41
2024/01/13 06:22:50;;;;;;;;;;;;;;;;;;5134649;28;20010;-42
2024/01/13 06:25:17;;;;;;;;;;;;;;;;;;5135127;28;20426;-41
2024/01/13 06:27:42;;;;;;;;;;;;;;;;;;5135018;28;20419;-42
2024/01/13 06:30:09;;;;;;;;;;;;;;;;;;5134966;28;19967;-41
2024/01/13 06:32:35;;;;;;;;;;;;;;;;;;5134872;28;19927;-43
2024/01/13 06:35:01;;;;;;;;;;;;;;;;;;5135040;27;19962;-43
2024/01/13 06:37:26;;;;;;;;;;;;;;;;;;5134953;28;19957;-41
2024/01/13 06:39:52;;;;;;;;;;;;;;;;;;5134514;28;20014;-43
2024/01/13 06:42:17;;;;;;;;;;;;;;;;;;5134801;28;19923;-41
2024/01/13 06:44:43;;;;;;;;;;;;;;;;;;5134739;28;19946;-41
2024/01/13 06:47:09;;;;;;;;;;;;;;;;;;5134297;28;19923;-42
2024/01/13 06:49:35;;;;;;;;;;;;;;;;;;5134685;28;19955;-43
2024/01/13 06:52:00;;;;;;;;;;;;;;;;;;5134447;28;19948;-42
2024/01/13 06:54:25;;;;;;;;;;;;;;;;;;5134475;28;20371;-41
2024/01/13 06:56:51;;;;;;;;;;;;;;;;;;5134631;28;20387;-41
2024/01/13 06:59:16;;;;;;;;;;;;;;;;;;5134178;28;19955;-43
2024/01/13 07:01:42;;;;;;;;;;;;;;;;;;5134537;28;19972;-41
2024/01/13 07:04:07;;;;;;;;;;;;;;;;;;5134605;28;20027;-41
2024/01/13 07:06:33;;;;;;;;;;;;;;;;;;5134341;27;19924;-41
2024/01/13 07:08:58;;;;;;;;;;;;;;;;;;5134386;28;19924;-41
2024/01/13 07:11:24;;;;;;;;;;;;;;;;;;5134005;28;19978;-42
2024/01/13 07:13:49;;;;;;;;;;;;;;;;;;5134189;28;19923;-41
2024/01/13 07:16:15;;;;;;;;;;;;;;;;;;5133853;28;19932;-44
2024/01/13 07:18:41;;;;;;;;;;;;;;;;;;5134237;28;20022;-44
2024/01/13 07:21:06;;;;;;;;;;;;;;;;;;5134161;28;20271;-41
2024/01/13 07:23:32;;;;;;;;;;;;;;;;;;5133828;28;20010;-44
2024/01/13 07:25:58;;;;;;;;;;;;;;;;;;5133932;28;19969;-41
2024/01/13 07:28:24;;;;;;;;;;;;;;;;;;5134072;28;20367;-43
2024/01/13 07:30:49;;;;;;;;;;;;;;;;;;5134118;28;19930;-42
2024/01/13 07:33:15;;;;;;;;;;;;;;;;;;5134215;28;19931;-41
2024/01/13 07:35:41;;;;;;;;;;;;;;;;;;5134069;27;20015;-41
2024/01/13 07:38:06;;;;;;;;;;;;;;;;;;5133793;28;20012;-43
2024/01/13 07:40:32;;;;;;;;;;;;;;;;;;5133780;28;19930;-40
2024/01/13 07:42:57;;;;;;;;;;;;;;;;;;5133758;28;20063;-42
2024/01/13 07:45:22;;;;;;;;;;;;;;;;;;5133430;28;20010;-42
2024/01/13 07:47:49;;;;;;;;;;;;;;;;;;5133498;28;19966;-43
2024/01/13 07:56:03;;;;;;;;;;;;;;;;;;5133869;28;19924;-41
2024/01/13 07:58:28;;;;;;;;;;;;;;;;;;5133634;28;19930;-41
2024/01/13 08:00:53;;;;;;;;;;;;;;;;;;5133491;28;19930;-41
2024/01/13 08:03:19;;;;;;;;;;;;;;;;;;5133549;28;19930;-41
2024/01/13 08:05:45;;;;;;;;;;;;;;;;;;5133430;28;20023;-42
2024/01/13 08:08:10;;;;;;;;;;;;;;;;;;5133380;28;19931;-41
2024/01/13 08:10:37;;;;;;;;;;;;;;;;;;5133318;28;19946;-41
2024/01/13 08:13:03;;;;;;;;;;;;;;;;;;5133537;28;19930;-41
2024/01/13 08:15:28;;;;;;;;;;;;;;;;;;5133081;28;19928;-42
2024/01/13 08:17:54;;;;;;;;;;;;;;;;;;5132735;27;19962;-41
2024/01/13 08:20:20;;;;;;;;;;;;;;;;;;5133301;28;20256;-45
2024/01/13 08:22:47;;;;;;;;;;;;;;;;;;5133409;28;20381;-40
2024/01/13 08:25:12;;;;;;;;;;;;;;;;;;5133373;28;19924;-41
2024/01/13 08:27:38;;;;;;;;;;;;;;;;;;5133263;28;20382;-42
2024/01/13 08:30:03;;;;;;;;;;;;;;;;;;5133010;28;20314;-42
2024/01/13 08:32:29;;;;;;;;;;;;;;;;;;5133119;28;20331;-44
2024/01/13 08:34:55;;;;;;;;;;;;;;;;;;5132829;28;19974;-44
2024/01/13 08:37:20;;;;;;;;;;;;;;;;;;5133068;28;20402;-45
2024/01/13 08:39:46;;;;;;;;;;;;;;;;;;5132997;28;19967;-44
2024/01/13 08:42:11;;;;;;;;;;;;;;;;;;5133026;28;19977;-43
2024/01/13 08:44:37;;;;;;;;;;;;;;;;;;5133051;28;19966;-41
2024/01/13 08:47:02;;;;;;;;;;;;;;;;;;5132631;28;20010;-41
2024/01/13 08:49:28;;;;;;;;;;;;;;;;;;5132692;28;19962;-41
2024/01/13 08:51:53;;;;;;;;;;;;;;;;;;5133156;28;19930;-42
2024/01/13 08:54:19;;;;;;;;;;;;;;;;;;5133117;28;19945;-43
2024/01/13 08:56:44;;;;;;;;;;;;;;;;;;5133156;28;19975;-40
2024/01/13 08:59:10;;;;;;;;;;;;;;;;;;5133072;28;19976;-43
2024/01/13 09:01:36;;;;;;;;;;;;;;;;;;5132690;28;19930;-41
2024/01/13 09:04:04;;;;;;;;;;;;;;;;;;5132748;28;19928;-40
2024/01/13 09:06:29;;;;;;;;;;;;;;;;;;5132896;28;19923;-40
2024/01/13 09:08:55;;;;;;;;;;;;;;;;;;5132645;28;19927;-41
2024/01/13 09:11:21;;;;;;;;;;;;;;;;;;5132449;28;20287;-41
2024/01/13 09:13:55;;;;;;;;;;;;;;;;;;5132359;28;19981;-41
2024/01/13 09:16:21;;;;;;;;;;;;;;;;;;5132346;28;19968;-40
2024/01/13 09:18:46;;;;;;;;;;;;;;;;;;5132483;28;20044;-41
2024/01/13 09:21:12;;;;;;;;;;;;;;;;;;5132571;28;20355;-41
2024/01/13 09:23:47;;;;;;;;;;;;;;;;;;5132863;28;19934;-42
2024/01/13 09:26:12;;;;;;;;;;;;;;;;;;5132711;28;19923;-41
2024/01/13 09:28:38;;;;;;;;;;;;;;;;;;5132552;27;19969;-43
2024/01/13 09:31:03;;;;;;;;;;;;;;;;;;5136037;28;19951;-40
2024/01/13 09:33:28;;;;;;;;;;;;;;;;;;5135933;28;20017;-42
2024/01/13 09:35:54;;;;;;;;;;;;;;;;;;5135963;27;20003;-42
2024/01/13 09:38:20;;;;;;;;;;;;;;;;;;5135909;28;19923;-42
2024/01/13 09:40:46;;;;;;;;;;;;;;;;;;5135441;28;19927;-40
2024/01/13 09:43:12;;;;;;;;;;;;;;;;;;5135813;28;19988;-41
2024/01/13 09:45:38;;;;;;;;;;;;;;;;;;5135507;28;19981;-43
2024/01/13 09:48:04;;;;;;;;;;;;;;;;;;5135744;28;19923;-41
2024/01/13 09:50:29;;;;;;;;;;;;;;;;;;5135945;28;20019;-41
2024/01/13 09:52:55;;;;;;;;;;;;;;;;;;5135803;28;19962;-41
2024/01/13 09:55:20;;;;;;;;;;;;;;;;;;5135718;28;19973;-40
2024/01/13 09:57:46;;;;;;;;;;;;;;;;;;5135651;28;19970;-42
2024/01/13 10:00:13;;;;;;;;;;;;;;;;;;5135163;28;20039;-40
2024/01/13 10:02:38;;;;;;;;;;;;;;;;;;5135547;28;19923;-41
2024/01/13 10:05:04;;;;;;;;;;;;;;;;;;5135562;28;19923;-41
2024/01/13 10:07:30;;;;;;;;;;;;;;;;;;5135316;28;19927;-42
2024/01/13 10:09:55;;;;;;;;;;;;;;;;;;5135053;28;19931;-41
2024/01/13 10:12:23;;;;;;;;;;;;;;;;;;5135288;28;19955;-41
2024/01/13 10:14:48;;;;;;;;;;;;;;;;;;5135183;28;19934;-45
2024/01/13 10:17:14;;;;;;;;;;;;;;;;;;5135184;28;19924;-41
2024/01/13 10:19:40;;;;;;;;;;;;;;;;;;5135228;28;19923;-40
2024/01/13 10:22:06;;;;;;;;;;;;;;;;;;5135430;28;19972;-42
2024/01/13 10:24:32;;;;;;;;;;;;;;;;;;5135284;28;19928;-42
2024/01/13 10:26:57;;;;;;;;;;;;;;;;;;5135100;28;19970;-41
2024/01/13 10:29:23;;;;;;;;;;;;;;;;;;5134973;28;20060;-40
2024/01/13 10:31:48;;;;;;;;;;;;;;;;;;5134864;28;19935;-41
2024/01/13 10:34:13;;;;;;;;;;;;;;;;;;5134949;28;20100;-43
2024/01/13 10:36:39;;;;;;;;;;;;;;;;;;5134869;27;19963;-41
2024/01/13 10:39:05;;;;;;;;;;;;;;;;;;5134826;27;19927;-40
2024/01/13 10:41:31;;;;;;;;;;;;;;;;;;5134061;28;20018;-41
2024/01/13 10:43:57;;;;;;;;;;;;;;;;;;5134936;28;20416;-41
2024/01/13 10:46:23;;;;;;;;;;;;;;;;;;5134478;28;19970;-41
2024/01/13 10:48:50;;;;;;;;;;;;;;;;;;5134667;28;19927;-41
2024/01/13 10:51:16;;;;;;;;;;;;;;;;;;5134884;28;19927;-41
2024/01/13 10:53:53;;;;;;;;;;;;;;;;;;5134883;28;19924;-41
2024/01/13 10:56:19;;;;;;;;;;;;;;;;;;5134758;28;20061;-42
2024/01/13 10:58:44;;;;;;;;;;;;;;;;;;5134531;28;20000;-41
2024/01/13 11:01:09;;;;;;;;;;;;;;;;;;5134471;28;19962;-42
2024/01/13 11:03:42;;;;;;;;;;;;;;;;;;5134601;28;19930;-40
2024/01/13 11:06:08;;;;;;;;;;;;;;;;;;5134392;28;19924;-41
2024/01/13 11:08:33;;;;;;;;;;;;;;;;;;5134471;28;19924;-40
2024/01/13 11:11:00;;;;;;;;;;;;;;;;;;5134211;28;19959;-42
2024/01/13 11:13:25;;;;;;;;;;;;;;;;;;5133966;28;19950;-41
2024/01/13 11:15:51;;;;;;;;;;;;;;;;;;5134071;28;20351;-42
2024/01/13 11:18:16;;;;;;;;;;;;;;;;;;5134336;28;19927;-43
2024/01/13 11:20:42;;;;;;;;;;;;;;;;;;5134403;28;20009;-42
2024/01/13 11:23:07;;;;;;;;;;;;;;;;;;5134393;28;19966;-42
2024/01/13 11:25:34;;;;;;;;;;;;;;;;;;5134263;28;20010;-43
2024/01/13 11:28:00;;;;;;;;;;;;;;;;;;5133995;28;19930;-43
2024/01/13 11:30:25;;;;;;;;;;;;;;;;;;5134067;28;19923;-41
2024/01/13 11:32:51;;;;;;;;;;;;;;;;;;5134006;28;19930;-41
2024/01/13 11:35:18;;;;;;;;;;;;;;;;;;5133782;27;19959;-41
2024/01/13 11:37:43;;;;;;;;;;;;;;;;;;5134037;28;20037;-40
2024/01/13 11:40:09;;;;;;;;;;;;;;;;;;5133440;28;20326;-41
2024/01/13 11:42:34;;;;;;;;;;;;;;;;;;5133911;28;20002;-42
2024/01/13 11:45:01;;;;;;;;;;;;;;;;;;5133850;28;19931;-42
2024/01/13 11:47:26;;;;;;;;;;;;;;;;;;5133700;28;19927;-42
2024/01/13 11:49:52;;;;;;;;;;;;;;;;;;5133812;28;19974;-41
2024/01/13 11:52:17;;;;;;;;;;;;;;;;;;5132896;27;19923;-41
2024/01/13 11:54:44;;;;;;;;;;;;;;;;;;5133756;28;20398;-41
2024/01/13 11:57:10;;;;;;;;;;;;;;;;;;5133628;28;19927;-41
2024/01/13 11:59:35;;;;;;;;;;;;;;;;;;5133673;28;19976;-41
2024/01/13 12:02:01;;;;;;;;;;;;;;;;;;5133578;28;20346;-41
2024/01/13 12:04:27;;;;;;;;;;;;;;;;;;5133341;28;19969;-41
2024/01/13 12:06:53;;;;;;;;;;;;;;;;;;5133590;28;19927;-42
2024/01/13 12:09:21;;;;;;;;;;;;;;;;;;5133468;28;20378;-41
2024/01/13 12:11:46;;;;;;;;;;;;;;;;;;5133291;28;19928;-44
2024/01/13 12:14:12;;;;;;;;;;;;;;;;;;5133397;28;19966;-42
2024/01/13 12:16:37;;;;;;;;;;;;;;;;;;5133135;28;20018;-42
2024/01/13 12:19:03;;;;;;;;;;;;;;;;;;5133463;28;19978;-45
2024/01/13 12:21:28;;;;;;;;;;;;;;;;;;5133501;28;19923;-40
2024/01/13 12:24:05;;;;;;;;;;;;;;;;;;5133442;28;19924;-40
2024/01/13 12:26:31;;;;;;;;;;;;;;;;;;5133165;28;19923;-41
2024/01/13 12:28:56;;;;;;;;;;;;;;;;;;5133173;28;20011;-42
2024/01/13 12:31:22;;;;;;;;;;;;;;;;;;5133164;28;20045;-42
2024/01/13 12:33:52;;;;;;;;;;;;;;;;;;5133266;28;19930;-42
2024/01/13 12:36:18;;;;;;;;;;;;;;;;;;5133161;27;19924;-41
2024/01/13 12:38:44;;;;;;;;;;;;;;;;;;5133131;28;19924;-42
2024/01/13 12:41:09;;;;;;;;;;;;;;;;;;5132585;28;19927;-41
2024/01/13 12:43:35;;;;;;;;;;;;;;;;;;5133203;28;19923;-41
2024/01/13 12:46:00;;;;;;;;;;;;;;;;;;5132844;28;19955;-41
2024/01/13 12:48:26;;;;;;;;;;;;;;;;;;5133005;28;19931;-40
2024/01/13 12:50:54;;;;;;;;;;;;;;;;;;5133191;28;20048;-41
2024/01/13 12:53:20;;;;;;;;;;;;;;;;;;5133045;28;19931;-42
2024/01/13 12:55:45;;;;;;;;;;;;;;;;;;5132798;28;19962;-40
2024/01/13 12:58:11;;;;;;;;;;;;;;;;;;5132873;28;20026;-42
2024/01/13 13:00:36;;;;;;;;;;;;;;;;;;5132572;28;19930;-42
2024/01/13 13:03:03;;;;;;;;;;;;;;;;;;5133660;27;20375;-42
2024/01/13 13:05:28;;;;;;;;;;;;;;;;;;5136185;28;20374;-43
2024/01/13 13:07:54;;;;;;;;;;;;;;;;;;5136359;28;19930;-43
2024/01/13 13:10:19;;;;;;;;;;;;;;;;;;5136118;28;19947;-40
2024/01/13 13:12:45;;;;;;;;;;;;;;;;;;5136371;28;20012;-42
2024/01/13 13:15:10;;;;;;;;;;;;;;;;;;5136142;28;19938;-42
2024/01/13 13:17:38;;;;;;;;;;;;;;;;;;5136151;28;19927;-40
2024/01/13 13:20:03;;;;;;;;;;;;;;;;;;5136396;28;19955;-41
2024/01/13 13:22:28;;;;;;;;;;;;;;;;;;5136285;28;20011;-42
2024/01/13 13:24:54;;;;;;;;;;;;;;;;;;5135930;28;19927;-41
2024/01/13 13:27:28;;;;;;;;;;;;;;;;;;5135764;28;19923;-40
2024/01/13 13:29:53;;;;;;;;;;;;;;;;;;5136030;28;20483;-41
2024/01/13 13:32:19;;;;;;;;;;;;;;;;;;5135973;28;19933;-40
2024/01/13 13:34:44;;;;;;;;;;;;;;;;;;5135930;28;20026;-42
2024/01/13 13:37:10;;;;;;;;;;;;;;;;;;5135719;27;19962;-40
2024/01/13 13:39:37;;;;;;;;;;;;;;;;;;5135784;28;20188;-42
2024/01/13 13:42:03;;;;;;;;;;;;;;;;;;5135708;28;19976;-41
2024/01/13 13:44:31;;;;;;;;;;;;;;;;;;5136017;28;20355;-41
2024/01/13 13:46:57;;;;;;;;;;;;;;;;;;5135645;28;19934;-42
2024/01/13 13:49:22;;;;;;;;;;;;;;;;;;5135643;28;20006;-41
2024/01/13 13:51:51;;;;;;;;;;;;;;;;;;5135931;28;19924;-42
2024/01/13 13:54:16;;;;;;;;;;;;;;;;;;5135461;28;19976;-42
2024/01/13 13:56:42;;;;;;;;;;;;;;;;;;5135521;28;19923;-42
2024/01/13 13:59:07;;;;;;;;;;;;;;;;;;5135293;28;20010;-41
2024/01/13 14:01:33;;;;;;;;;;;;;;;;;;5135507;28;19923;-42
2024/01/13 14:03:59;;;;;;;;;;;;;;;;;;5134869;28;21270;-42
2024/01/13 14:06:25;;;;;;;;;;;;;;;;;;5135222;28;19972;-41
2024/01/13 14:08:50;;;;;;;;;;;;;;;;;;5135344;28;19927;-42
2024/01/13 14:11:16;;;;;;;;;;;;;;;;;;5135181;28;19927;-41
2024/01/13 14:13:41;;;;;;;;;;;;;;;;;;5135366;28;19967;-41
2024/01/13 14:16:07;;;;;;;;;;;;;;;;;;5134114;27;20006;-40
2024/01/13 14:18:33;;;;;;;;;;;;;;;;;;5135399;28;19998;-40
2024/01/13 14:20:59;;;;;;;;;;;;;;;;;;5135380;28;20297;-41
2024/01/13 14:23:24;;;;;;;;;;;;;;;;;;5135363;28;19976;-41
2024/01/13 14:25:50;;;;;;;;;;;;;;;;;;5134970;28;20022;-42
2024/01/13 14:28:19;;;;;;;;;;;;;;;;;;5135017;28;20018;-41
2024/01/13 14:30:45;;;;;;;;;;;;;;;;;;5134889;28;19923;-42
2024/01/13 14:33:10;;;;;;;;;;;;;;;;;;5134998;28;19946;-40
2024/01/13 14:35:36;;;;;;;;;;;;;;;;;;5135009;27;20353;-40
2024/01/13 14:38:01;;;;;;;;;;;;;;;;;;5134854;28;19959;-41
2024/01/13 14:40:27;;;;;;;;;;;;;;;;;;5134745;28;20431;-43
2024/01/13 14:42:53;;;;;;;;;;;;;;;;;;5135118;28;19930;-41
2024/01/13 14:45:18;;;;;;;;;;;;;;;;;;5134540;28;19950;-42
2024/01/13 14:47:47;;;;;;;;;;;;;;;;;;5134874;28;19923;-40
2024/01/13 14:50:13;;;;;;;;;;;;;;;;;;5134898;28;20014;-40
2024/01/13 14:52:39;;;;;;;;;;;;;;;;;;5134799;28;19982;-41
2024/01/13 14:55:04;;;;;;;;;;;;;;;;;;5134559;28;19969;-41
2024/01/13 14:57:33;;;;;;;;;;;;;;;;;;5134635;28;20400;-42
2024/01/13 14:59:59;;;;;;;;;;;;;;;;;;5134573;28;20038;-41
2024/01/13 15:02:24;;;;;;;;;;;;;;;;;;5134422;28;19966;-41
2024/01/13 15:04:50;;;;;;;;;;;;;;;;;;5134612;28;19956;-42
2024/01/13 15:07:26;;;;;;;;;;;;;;;;;;5134557;28;19930;-41
2024/01/13 15:09:51;;;;;;;;;;;;;;;;;;5134113;28;19923;-42
2024/01/13 15:12:17;;;;;;;;;;;;;;;;;;5134538;28;20366;-41
2024/01/13 15:14:43;;;;;;;;;;;;;;;;;;5134381;28;19931;-41
2024/01/13 15:17:09;;;;;;;;;;;;;;;;;;5134176;28;19923;-41
2024/01/13 15:19:35;;;;;;;;;;;;;;;;;;5134459;28;19959;-41
2024/01/13 15:22:00;;;;;;;;;;;;;;;;;;5134261;28;19923;-40
2024/01/13 15:24:26;;;;;;;;;;;;;;;;;;5134144;28;20317;-42
2024/01/13 15:26:54;;;;;;;;;;;;;;;;;;5134021;27;20018;-40
2024/01/13 15:29:19;;;;;;;;;;;;;;;;;;5134080;28;19971;-42
2024/01/13 15:31:45;;;;;;;;;;;;;;;;;;5133907;28;19969;-42
2024/01/13 15:34:10;;;;;;;;;;;;;;;;;;5134099;28;20071;-40
2024/01/13 15:36:36;;;;;;;;;;;;;;;;;;5134011;27;20010;-42
2024/01/13 15:39:01;;;;;;;;;;;;;;;;;;5134009;28;19924;-42
2024/01/13 15:41:27;;;;;;;;;;;;;;;;;;5133803;28;20006;-42
2024/01/13 15:43:52;;;;;;;;;;;;;;;;;;5134047;28;19968;-42
2024/01/13 15:46:18;;;;;;;;;;;;;;;;;;5133738;28;19923;-42
2024/01/13 15:48:43;;;;;;;;;;;;;;;;;;5133989;28;19952;-41
2024/01/13 15:51:09;;;;;;;;;;;;;;;;;;5133835;28;19923;-40
2024/01/13 15:53:35;;;;;;;;;;;;;;;;;;5133685;28;19934;-40
2024/01/13 15:56:01;;;;;;;;;;;;;;;;;;5133626;28;19923;-43
2024/01/13 15:58:28;;;;;;;;;;;;;;;;;;5133451;28;19934;-41
2024/01/13 16:00:54;;;;;;;;;;;;;;;;;;5133779;28;19924;-41
2024/01/13 16:03:20;;;;;;;;;;;;;;;;;;5133678;28;19961;-41
2024/01/13 16:05:45;;;;;;;;;;;;;;;;;;5133635;28;19931;-40
2024/01/13 16:08:11;;;;;;;;;;;;;;;;;;5133584;28;20010;-41
2024/01/13 16:10:36;;;;;;;;;;;;;;;;;;5133408;28;19931;-42
2024/01/13 16:13:02;;;;;;;;;;;;;;;;;;5133605;28;19927;-42
2024/01/13 16:15:28;;;;;;;;;;;;;;;;;;5133191;28;19927;-41
2024/01/13 16:17:53;;;;;;;;;;;;;;;;;;5133621;28;20373;-43
2024/01/13 16:20:22;;;;;;;;;;;;;;;;;;5133528;28;19924;-41
2024/01/13 16:22:47;;;;;;;;;;;;;;;;;;5133272;28;20022;-43
2024/01/13 16:25:12;;;;;;;;;;;;;;;;;;5133307;28;20023;-41
2024/01/13 16:27:38;;;;;;;;;;;;;;;;;;5133323;28;20010;-42
2024/01/13 16:30:04;;;;;;;;;;;;;;;;;;5133358;28;19924;-41
2024/01/13 16:32:30;;;;;;;;;;;;;;;;;;5133209;28;20023;-42
2024/01/13 16:35:03;;;;;;;;;;;;;;;;;;5133295;27;19924;-40
2024/01/13 16:37:28;;;;;;;;;;;;;;;;;;5133245;27;20316;-41
2024/01/13 16:39:53;;;;;;;;;;;;;;;;;;5136659;28;19923;-43
2024/01/13 16:42:19;;;;;;;;;;;;;;;;;;5137024;28;19937;-40